createdAt,value
2022-09-05T00:03:00.976Z,17.29
2022-09-05T00:06:12.578Z,17.19
2022-09-05T00:09:17.230Z,17.09
2022-09-05T00:12:20.724Z,17.05
2022-09-05T00:15:41.412Z,17.05
2022-09-05T00:24:21.085Z,17.00
2022-09-05T00:24:37.401Z,16.95
2022-09-05T00:25:58.560Z,16.97
2022-09-05T00:29:39.652Z,16.95
2022-09-05T00:33:26.559Z,16.93
2022-09-05T00:36:38.630Z,16.94
2022-09-05T00:39:41.594Z,16.90
2022-09-05T00:42:50.213Z,16.90
2022-09-05T00:45:58.781Z,16.90
2022-09-05T00:49:09.482Z,16.88
2022-09-05T00:52:30.973Z,16.90
2022-09-05T00:55:52.780Z,16.88
2022-09-05T00:59:03.338Z,16.88
2022-09-05T01:02:23.873Z,16.89
2022-09-05T01:05:36.068Z,16.92
2022-09-05T01:08:56.366Z,16.88
2022-09-05T01:12:24.024Z,16.85
2022-09-05T01:15:32.147Z,16.93
2022-09-05T01:18:53.151Z,16.94
2022-09-05T01:22:18.527Z,16.94
2022-09-05T01:25:39.372Z,16.94
2022-09-05T01:29:16.479Z,16.94
2022-09-05T01:32:37.864Z,16.98
2022-09-05T01:35:59.188Z,16.97
2022-09-05T01:40:11.200Z,16.96
2022-09-05T01:42:46.097Z,16.95
2022-09-05T01:45:52.686Z,16.90
2022-09-05T01:48:58.398Z,16.90
2022-09-05T01:52:09.750Z,16.93
2022-09-05T01:55:31.012Z,16.84
2022-09-05T01:58:51.442Z,16.78
2022-09-05T02:02:05.356Z,16.76
2022-09-05T02:05:06.896Z,16.73
2022-09-05T02:08:21.789Z,16.62
2022-09-05T02:11:41.982Z,16.52
2022-09-05T02:15:02.350Z,16.42
2022-09-05T02:18:12.865Z,16.36
2022-09-05T02:21:29.818Z,16.32
2022-09-05T02:24:38.701Z,16.31
2022-09-05T02:28:05.678Z,16.31
2022-09-05T02:31:20.120Z,16.31
2022-09-05T02:34:37.602Z,16.33
2022-09-05T02:39:33.553Z,16.35
2022-09-05T02:45:14.495Z,16.38
2022-09-05T02:45:26.615Z,16.38
2022-09-05T02:48:41.089Z,16.38
2022-09-05T02:57:30.441Z,16.36
2022-09-05T02:57:37.052Z,16.37
2022-09-05T02:58:53.346Z,16.38
2022-09-05T03:02:26.391Z,16.40
2022-09-05T03:05:28.509Z,16.21
2022-09-05T03:08:45.466Z,15.91
2022-09-05T03:11:56.323Z,15.64
2022-09-05T03:15:22.207Z,15.42
2022-09-05T03:18:43.115Z,15.24
2022-09-05T03:21:48.073Z,15.15
2022-09-05T03:25:08.394Z,15.10
2022-09-05T03:28:28.671Z,15.04
2022-09-05T03:31:41.468Z,15.01
2022-09-05T03:34:58.436Z,14.95
2022-09-05T03:38:15.403Z,14.90
2022-09-05T03:41:41.038Z,14.88
2022-09-05T03:44:45.529Z,14.87
2022-09-05T03:47:50.800Z,14.82
2022-09-05T03:57:04.529Z,14.83
2022-09-05T03:57:13.962Z,14.80
2022-09-05T03:58:16.452Z,14.76
2022-09-05T04:03:00.050Z,14.72
2022-09-05T04:08:15.462Z,14.71
2022-09-05T04:08:32.213Z,14.72
2022-09-05T04:11:35.758Z,14.72
2022-09-05T04:14:40.488Z,14.70
2022-09-05T04:17:43.472Z,14.65
2022-09-05T04:20:48.761Z,14.65
2022-09-05T04:23:50.486Z,14.64
2022-09-05T04:27:07.433Z,14.64
2022-09-05T04:30:37.821Z,14.62
2022-09-05T04:33:58.556Z,14.59
2022-09-05T04:37:04.525Z,14.59
2022-09-05T04:40:24.873Z,14.54
2022-09-05T04:43:34.766Z,14.54
2022-09-05T04:46:48.369Z,14.53
2022-09-05T04:49:53.953Z,14.52
2022-09-05T04:53:20.037Z,14.52
2022-09-05T04:56:23.115Z,14.49
2022-09-05T05:04:22.421Z,14.47
2022-09-05T05:06:17.106Z,14.40
2022-09-05T05:06:43.982Z,14.42
2022-09-05T05:10:06.450Z,14.43
2022-09-05T05:17:40.368Z,14.37
2022-09-05T05:18:09.259Z,14.34
2022-09-05T05:20:42.881Z,14.34
2022-09-05T05:24:01.161Z,14.32
2022-09-05T05:27:21.673Z,14.28
2022-09-05T05:30:24.742Z,14.26
2022-09-05T05:33:29.054Z,14.24
2022-09-05T05:36:43.606Z,14.28
2022-09-05T05:39:46.228Z,14.27
2022-09-05T05:43:13.803Z,14.27
2022-09-05T05:46:16.284Z,14.29
2022-09-05T05:49:24.093Z,14.27
2022-09-05T05:52:58.210Z,14.29
2022-09-05T05:56:12.248Z,14.30
2022-09-05T05:59:32.622Z,14.26
2022-09-05T06:03:24.633Z,14.31
2022-09-05T06:06:32.849Z,14.44
2022-09-05T06:14:52.691Z,14.39
2022-09-05T06:15:02.811Z,14.34
2022-09-05T06:17:11.969Z,14.33
2022-09-05T06:22:09.041Z,14.36
2022-09-05T06:24:06.273Z,14.37
2022-09-05T06:27:19.297Z,14.45
2022-09-05T06:30:21.174Z,14.50
2022-09-05T06:33:32.432Z,14.53
2022-09-05T06:36:52.434Z,14.55
2022-09-05T06:40:09.004Z,14.53
2022-09-05T06:43:39.963Z,14.53
2022-09-05T06:47:07.733Z,14.53
2022-09-05T06:50:24.425Z,14.49
2022-09-05T06:53:32.519Z,14.46
2022-09-05T06:56:34.157Z,14.50
2022-09-05T06:59:54.150Z,14.52
2022-09-05T07:03:01.664Z,14.57
2022-09-05T07:06:07.726Z,14.70
2022-09-05T07:09:28.728Z,14.82
2022-09-05T07:12:31.085Z,15.02
2022-09-05T07:15:38.756Z,15.10
2022-09-05T07:18:40.609Z,15.11
2022-09-05T07:21:44.324Z,15.15
2022-09-05T07:24:54.997Z,15.25
2022-09-05T07:28:25.986Z,15.32
2022-09-05T07:31:37.163Z,15.39
2022-09-05T07:34:39.726Z,15.54
2022-09-05T07:37:41.939Z,15.57
2022-09-05T07:40:58.184Z,15.60
2022-09-05T07:44:06.615Z,15.62
2022-09-05T07:47:10.141Z,15.72
2022-09-05T07:55:43.485Z,15.74
2022-09-05T07:57:01.481Z,15.58
2022-09-05T08:00:26.988Z,15.44
2022-09-05T08:03:31.215Z,15.45
2022-09-05T08:07:45.839Z,15.52
2022-09-05T08:10:08.188Z,15.61
2022-09-05T08:13:23.592Z,15.76
2022-09-05T08:16:28.378Z,15.83
2022-09-05T08:19:50.225Z,15.88
2022-09-05T08:23:00.882Z,16.03
2022-09-05T08:26:05.218Z,15.96
2022-09-05T08:29:11.220Z,16.18
2022-09-05T08:32:13.646Z,16.20
2022-09-05T08:35:15.278Z,16.29
2022-09-05T08:38:18.186Z,16.43
2022-09-05T08:41:51.172Z,16.53
2022-09-05T08:46:41.095Z,16.59
2022-09-05T08:48:28.814Z,17.14
2022-09-05T08:51:33.430Z,17.45
2022-09-05T08:54:35.036Z,17.51
2022-09-05T08:57:45.537Z,17.79
2022-09-05T09:00:55.735Z,17.91
2022-09-05T09:04:14.929Z,17.80
2022-09-05T09:07:50.594Z,17.76
2022-09-05T09:10:59.487Z,17.64
2022-09-05T09:14:30.229Z,17.26
2022-09-05T09:17:35.565Z,17.00
2022-09-05T09:20:46.139Z,16.95
2022-09-05T09:23:53.109Z,16.99
2022-09-05T09:27:00.395Z,16.97
2022-09-05T09:30:03.961Z,17.01
2022-09-05T09:33:06.269Z,16.96
2022-09-05T09:36:10.598Z,17.29
2022-09-05T09:39:38.745Z,17.38
2022-09-05T09:42:55.947Z,17.34
2022-09-05T09:46:03.523Z,17.45
2022-09-05T09:49:25.403Z,17.51
2022-09-05T09:52:36.153Z,17.87
2022-09-05T09:55:55.211Z,18.40
2022-09-05T09:58:56.753Z,18.54
2022-09-05T10:02:01.168Z,18.42
2022-09-05T10:10:38.001Z,18.14
2022-09-05T10:10:54.674Z,18.32
2022-09-05T10:12:34.127Z,18.41
2022-09-05T10:15:39.596Z,18.49
2022-09-05T10:18:42.872Z,18.69
2022-09-05T10:22:34.311Z,19.18
2022-09-05T10:25:19.231Z,19.47
2022-09-05T10:28:40.506Z,19.34
2022-09-05T10:33:51.387Z,19.09
2022-09-05T10:35:22.572Z,19.02
2022-09-05T10:38:32.762Z,19.03
2022-09-05T10:41:56.723Z,19.15
2022-09-05T10:44:59.375Z,19.43
2022-09-05T10:48:13.175Z,19.55
2022-09-05T10:51:27.318Z,19.47
2022-09-05T10:55:13.610Z,19.36
2022-09-05T10:58:40.361Z,19.44
2022-09-05T11:02:34.869Z,19.83
2022-09-05T11:05:38.770Z,19.53
2022-09-05T11:08:41.665Z,19.68
2022-09-05T11:11:46.820Z,19.83
2022-09-05T11:14:52.431Z,20.31
2022-09-05T11:18:04.006Z,21.21
2022-09-05T11:21:08.454Z,21.18
2022-09-05T11:24:13.085Z,20.58
2022-09-05T11:27:25.861Z,20.77
2022-09-05T11:30:30.144Z,21.31
2022-09-05T11:39:53.151Z,21.58
2022-09-05T11:40:05.509Z,20.85
2022-09-05T11:41:04.029Z,20.43
2022-09-05T11:44:25.697Z,20.94
2022-09-05T11:47:33.193Z,21.43
2022-09-05T11:51:09.140Z,21.85
2022-09-05T11:54:29.342Z,21.44
2022-09-05T11:57:38.732Z,21.97
2022-09-05T12:00:40.289Z,21.69
2022-09-05T12:03:59.280Z,21.39
2022-09-05T12:07:26.811Z,21.56
2022-09-05T12:10:46.818Z,21.34
2022-09-05T12:14:20.800Z,21.46
2022-09-05T12:17:34.835Z,22.10
2022-09-05T12:20:52.466Z,22.39
2022-09-05T12:27:36.072Z,23.50
2022-09-05T12:31:07.129Z,22.50
2022-09-05T12:36:10.173Z,22.21
2022-09-05T12:40:04.902Z,22.48
2022-09-05T12:41:41.475Z,22.55
2022-09-05T12:41:45.235Z,21.99
2022-09-05T12:44:51.047Z,22.34
2022-09-05T12:47:56.190Z,22.81
2022-09-05T12:50:58.949Z,23.32
2022-09-05T12:54:09.441Z,23.06
2022-09-05T12:59:21.003Z,22.70
2022-09-05T13:03:09.852Z,23.59
2022-09-05T13:04:35.752Z,23.75
2022-09-05T13:07:53.941Z,23.26
2022-09-05T13:14:48.857Z,23.01
2022-09-05T13:14:58.327Z,24.21
2022-09-05T13:18:10.395Z,24.50
2022-09-05T13:21:23.290Z,24.86
2022-09-05T13:24:27.796Z,24.60
2022-09-05T13:27:29.718Z,24.43
2022-09-05T13:33:10.330Z,24.13
2022-09-05T13:38:05.946Z,24.13
2022-09-05T13:38:12.952Z,23.78
2022-09-05T13:40:41.570Z,24.10
2022-09-05T13:43:43.350Z,23.01
2022-09-05T13:46:57.418Z,22.08
2022-09-05T13:50:19.976Z,21.80
2022-09-05T13:53:21.557Z,22.75
2022-09-05T13:56:27.556Z,22.75
2022-09-05T13:59:29.177Z,24.29
2022-09-05T14:06:45.079Z,24.25
2022-09-05T14:09:46.530Z,24.21
2022-09-05T14:12:49.558Z,23.42
2022-09-05T14:15:55.918Z,22.61
2022-09-05T14:19:16.196Z,22.50
2022-09-05T14:22:31.602Z,22.50
2022-09-05T14:25:38.889Z,22.50
2022-09-05T14:28:46.603Z,22.98
2022-09-05T14:37:46.138Z,23.69
2022-09-05T14:38:01.084Z,23.31
2022-09-05T14:38:54.788Z,22.54
2022-09-05T14:42:09.429Z,22.36
2022-09-05T14:45:11.563Z,22.15
2022-09-05T14:48:24.884Z,21.94
2022-09-05T14:51:36.123Z,22.12
2022-09-05T15:02:41.215Z,22.69
2022-09-05T15:02:42.131Z,21.99
2022-09-05T15:04:44.800Z,23.61
2022-09-05T15:07:47.513Z,24.50
2022-09-05T15:12:18.810Z,24.81
2022-09-05T15:14:12.291Z,24.81
2022-09-05T15:17:17.246Z,24.11
2022-09-05T15:20:37.506Z,24.29
2022-09-05T15:23:39.082Z,24.33
2022-09-05T15:26:47.977Z,23.60
2022-09-05T15:29:56.153Z,22.83
2022-09-05T15:33:11.350Z,22.56
2022-09-05T15:36:13.775Z,22.21
2022-09-05T15:39:25.328Z,22.12
2022-09-05T15:42:27.942Z,22.31
2022-09-05T15:45:35.362Z,22.41
2022-09-05T15:48:37.379Z,22.39
2022-09-05T15:51:48.726Z,22.23
2022-09-05T15:55:02.554Z,22.39
2022-09-05T15:58:05.166Z,22.38
2022-09-05T16:01:17.118Z,22.30
2022-09-05T16:10:28.638Z,22.05
2022-09-05T16:10:30.752Z,21.96
2022-09-05T16:16:24.861Z,22.06
2022-09-05T16:23:19.239Z,22.06
2022-09-05T16:23:28.688Z,21.84
2022-09-05T16:25:20.392Z,21.89
2022-09-05T16:28:29.630Z,21.89
2022-09-05T16:31:43.855Z,21.84
2022-09-05T16:34:49.757Z,21.66
2022-09-05T16:38:08.368Z,21.61
2022-09-05T16:41:15.753Z,21.59
2022-09-05T16:44:22.956Z,21.72
2022-09-05T16:47:25.565Z,21.98
2022-09-05T16:50:35.795Z,22.12
2022-09-05T16:53:45.599Z,22.04
2022-09-05T16:57:01.290Z,21.91
2022-09-05T17:00:04.359Z,21.77
2022-09-05T17:03:28.657Z,21.71
2022-09-05T17:06:34.348Z,21.71
2022-09-05T17:09:35.887Z,21.65
2022-09-05T17:12:38.604Z,21.51
2022-09-05T17:15:51.849Z,21.46
2022-09-05T17:18:59.384Z,21.33
2022-09-05T17:27:53.874Z,21.24
2022-09-05T17:29:34.488Z,21.27
2022-09-05T17:29:37.959Z,21.25
2022-09-05T17:32:38.474Z,21.13
2022-09-05T17:35:48.878Z,20.99
2022-09-05T17:38:54.797Z,20.71
2022-09-05T17:42:02.253Z,20.52
2022-09-05T17:45:09.815Z,20.36
2022-09-05T17:48:12.412Z,20.21
2022-09-05T17:51:13.962Z,20.08
2022-09-05T17:54:18.722Z,19.97
2022-09-05T17:57:29.461Z,19.90
2022-09-05T18:00:44.725Z,19.87
2022-09-05T18:03:49.464Z,19.81
2022-09-05T18:10:15.119Z,19.59
2022-09-05T18:13:31.991Z,19.51
2022-09-05T18:16:43.726Z,19.48
2022-09-05T18:20:06.391Z,19.45
2022-09-05T18:26:37.565Z,19.37
2022-09-05T18:29:57.994Z,19.34
2022-09-05T18:33:55.345Z,19.35
2022-09-05T18:36:25.769Z,19.29
2022-09-05T18:39:29.768Z,19.21
2022-09-05T18:42:39.193Z,19.15
2022-09-05T18:45:53.071Z,19.04
2022-09-05T18:50:04.234Z,19.02
2022-09-05T18:52:23.385Z,18.99
2022-09-05T18:56:09.255Z,18.92
2022-09-05T18:58:53.534Z,18.84
2022-09-05T19:02:28.809Z,18.80
2022-09-05T19:06:35.799Z,18.76
2022-09-05T19:09:29.581Z,18.69
2022-09-05T19:12:39.076Z,18.64
2022-09-05T19:15:52.894Z,18.61
2022-09-05T19:19:05.439Z,18.59
2022-09-05T19:22:39.590Z,18.52
2022-09-05T19:25:30.647Z,18.44
2022-09-05T19:36:49.646Z,18.35
2022-09-05T19:36:52.816Z,18.41
2022-09-05T19:37:09.790Z,18.37
2022-09-05T19:41:33.193Z,18.35
2022-09-05T19:47:38.383Z,18.29
2022-09-05T19:47:38.543Z,18.32
2022-09-05T19:49:02.278Z,18.28
2022-09-05T19:52:24.230Z,18.25
2022-09-05T19:55:28.802Z,18.24
2022-09-05T19:58:31.084Z,18.32
2022-09-05T20:01:32.918Z,18.45
2022-09-05T20:04:36.242Z,18.48
2022-09-05T20:07:48.038Z,18.45
2022-09-05T20:10:49.846Z,18.39
2022-09-05T20:13:51.635Z,18.29
2022-09-05T20:16:56.108Z,18.17
2022-09-05T20:20:07.963Z,18.11
2022-09-05T20:23:10.019Z,18.06
2022-09-05T20:26:11.658Z,18.06
2022-09-05T20:29:13.505Z,18.05
2022-09-05T20:32:15.935Z,18.06
2022-09-05T20:39:38.236Z,17.99
2022-09-05T20:43:22.464Z,18.03
2022-09-05T20:43:25.329Z,18.03
2022-09-05T20:46:12.107Z,18.08
2022-09-05T20:54:09.449Z,18.10
2022-09-05T20:54:24.998Z,18.12
2022-09-05T20:56:22.643Z,18.14
2022-09-05T20:59:34.358Z,18.17
2022-09-05T21:02:36.127Z,18.15
2022-09-05T21:05:40.745Z,18.13
2022-09-05T21:08:42.668Z,18.15
2022-09-05T21:11:47.006Z,18.15
2022-09-05T21:14:59.315Z,18.12
2022-09-05T21:18:08.229Z,18.12
2022-09-05T21:21:28.303Z,18.08
2022-09-05T21:24:31.245Z,18.06
2022-09-05T21:27:32.830Z,18.03
2022-09-05T21:30:35.513Z,18.03
2022-09-05T21:33:45.304Z,17.96
2022-09-05T21:36:48.566Z,17.87
2022-09-05T21:39:58.465Z,17.77
2022-09-05T21:47:35.098Z,17.70
2022-09-05T21:47:43.877Z,17.58
2022-09-05T21:49:49.319Z,17.43
2022-09-05T21:53:14.576Z,17.33
2022-09-05T21:59:20.125Z,17.18
2022-09-05T21:59:46.159Z,17.06
2022-09-05T22:02:49.342Z,16.94
2022-09-05T22:05:52.248Z,16.84
2022-09-05T22:08:56.260Z,16.87
2022-09-05T22:12:30.074Z,16.92
2022-09-05T22:15:32.819Z,16.86
2022-09-05T22:18:35.332Z,16.79
2022-09-05T22:21:37.734Z,16.74
2022-09-05T22:24:39.567Z,16.70
2022-09-05T22:27:43.127Z,16.60
2022-09-05T22:30:44.701Z,16.52
2022-09-05T22:33:46.460Z,16.54
2022-09-05T22:36:56.128Z,16.54
2022-09-05T22:39:57.915Z,16.54
2022-09-05T22:43:00.781Z,16.50
2022-09-05T22:46:03.629Z,16.51
2022-09-05T22:49:05.301Z,16.49
2022-09-05T22:52:07.412Z,16.39
2022-09-05T22:55:09.357Z,16.36
2022-09-05T22:58:11.846Z,16.34
2022-09-05T23:01:13.499Z,16.34
2022-09-05T23:04:15.237Z,16.34
2022-09-05T23:07:16.926Z,16.32
2022-09-05T23:10:18.573Z,16.30
2022-09-05T23:13:20.203Z,16.27
2022-09-05T23:16:21.897Z,16.24
2022-09-05T23:19:23.550Z,16.28
2022-09-05T23:22:25.191Z,16.31
2022-09-05T23:25:26.789Z,16.33
2022-09-05T23:28:28.634Z,16.33
2022-09-05T23:31:30.429Z,16.36
2022-09-05T23:34:33.165Z,16.43
2022-09-05T23:37:34.773Z,16.48
2022-09-05T23:40:36.359Z,16.49
2022-09-05T23:43:37.975Z,16.47
2022-09-05T23:46:40.423Z,16.44
2022-09-05T23:49:42.189Z,16.43
2022-09-05T23:52:44.296Z,16.35
2022-09-05T23:55:45.906Z,16.32
2022-09-05T23:58:47.515Z,16.30
